Time;durP1;ratioP1;P1;durP2;ratioP2;P2;SDS_P1;SDS_P2;PMS_P1;PMS_P2;Temp;Humidity;BMP_temperature;BMP_pressure;BME280_temperature;BME280_humidity;BME280_pressure;Samples;Min_cycle;Max_cycle;Signal;HPM_P1;HPM_P2
2021/05/25 00:00:24;;;;;;;;;;;;;;;7.88;100.00;95879.72;1279081;23;19904;-66
2021/05/25 00:00:55;;;;;;;;;;;;;;;7.90;100.00;95874.97;1279029;23;19903;-66
2021/05/25 00:01:25;;;;;;;;;;;;;;;7.91;100.00;95877.38;1279005;23;19916;-66
2021/05/25 00:01:55;;;;;;;;;;;;;;;7.94;100.00;95873.41;1279011;23;19903;-66
2021/05/25 00:02:26;;;;;;;;;;;;;;;7.95;100.00;95875.00;1279169;23;19916;-66
2021/05/25 00:02:56;;;;;;;;;;;;;;;8.00;100.00;95877.72;1278996;23;20307;-66
2021/05/25 00:03:26;;;;;;;;;;;;;;;7.99;100.00;95878.78;1279154;23;19928;-66
2021/05/25 00:03:57;;;;;;;;;;;;;;;7.99;100.00;95868.13;1279018;23;19900;-66
2021/05/25 00:04:27;;;;;;;;;;;;;;;7.97;100.00;95876.34;1279100;23;19924;-66
2021/05/25 00:04:57;;;;;;;;;;;;;;;7.97;100.00;95867.56;1279026;23;19928;-66
2021/05/25 00:05:29;;;;;;;;;;;;;;;7.93;100.00;95877.09;1279109;23;19908;-66
2021/05/25 00:05:59;;;;;;;;;;;;;;;7.95;100.00;95877.69;1278960;23;19903;-66
2021/05/25 00:06:29;;;;;;;;;;;;;;;7.90;100.00;95880.31;1278654;23;19903;-64
2021/05/25 00:07:00;;;;;;;;;;;;;;;7.88;100.00;95879.72;1278652;23;20261;-64
2021/05/25 00:07:30;;;;;;;;;;;;;;;7.88;100.00;95885.06;1272466;23;20238;-66
2021/05/25 00:08:00;;;;;;;;;;;;;;;7.81;100.00;95878.09;1266377;23;19936;-64
2021/05/25 00:08:31;;;;;;;;;;;;;;;7.79;100.00;95874.09;1272605;23;19993;-64
2021/05/25 00:09:01;;;;;;;;;;;;;;;7.79;100.00;95880.22;1272540;23;20246;-64
2021/05/25 00:09:32;;;;;;;;;;;;;;;7.76;100.00;95883.38;1278757;23;19974;-64
2021/05/25 00:10:02;;;;;;;;;;;;;;;7.77;100.00;95879.66;1279058;23;19896;-64
2021/05/25 00:10:33;;;;;;;;;;;;;;;7.74;100.00;95880.19;1279119;23;19896;-64
2021/05/25 00:11:03;;;;;;;;;;;;;;;7.75;100.00;95886.31;1279003;23;19904;-64
2021/05/25 00:11:33;;;;;;;;;;;;;;;7.74;100.00;95879.38;1278866;23;19897;-64
2021/05/25 00:12:04;;;;;;;;;;;;;;;7.72;100.00;95884.13;1278988;23;19896;-64
2021/05/25 00:12:34;;;;;;;;;;;;;;;7.69;100.00;95885.47;1278950;23;20227;-64
2021/05/25 00:13:05;;;;;;;;;;;;;;;7.68;100.00;95878.53;1278801;23;19912;-64
2021/05/25 00:13:36;;;;;;;;;;;;;;;7.68;100.00;95877.75;1279091;23;19944;-64
2021/05/25 00:14:06;;;;;;;;;;;;;;;7.68;100.00;95885.72;1278715;23;19904;-65
2021/05/25 00:14:36;;;;;;;;;;;;;;;7.70;100.00;95887.06;1278657;23;19896;-64
2021/05/25 00:15:11;;;;;;;;;;;;;;;7.70;100.00;95876.41;1278690;23;19896;-64
2021/05/25 00:15:41;;;;;;;;;;;;;;;7.70;100.00;95878.28;1278790;23;19896;-64
2021/05/25 00:16:11;;;;;;;;;;;;;;;7.69;100.00;95882.00;1279023;23;19903;-64
2021/05/25 00:16:41;;;;;;;;;;;;;;;7.69;100.00;95880.16;1279013;23;19919;-64
2021/05/25 00:17:12;;;;;;;;;;;;;;;7.69;100.00;95876.69;1278636;23;19900;-64
2021/05/25 00:17:42;;;;;;;;;;;;;;;7.68;100.00;95875.88;1278725;23;19900;-64
2021/05/25 00:18:12;;;;;;;;;;;;;;;7.70;100.00;95863.13;1278659;23;19919;-64
2021/05/25 00:18:43;;;;;;;;;;;;;;;7.73;100.00;95846.66;1278638;23;19928;-64
2021/05/25 00:19:13;;;;;;;;;;;;;;;7.76;100.00;95840.00;1279044;23;19903;-64
2021/05/25 00:19:43;;;;;;;;;;;;;;;7.75;100.00;95838.41;1279043;23;19896;-65
2021/05/25 00:20:13;;;;;;;;;;;;;;;7.70;100.00;95841.84;1278877;23;19896;-65
2021/05/25 00:20:44;;;;;;;;;;;;;;;7.69;100.00;95842.91;1278981;23;19902;-64
2021/05/25 00:21:14;;;;;;;;;;;;;;;7.67;100.00;95837.03;1279045;23;20352;-64
2021/05/25 00:21:44;;;;;;;;;;;;;;;7.75;100.00;95846.41;1279055;23;19924;-64
2021/05/25 00:22:15;;;;;;;;;;;;;;;7.71;100.00;95850.63;1279020;23;19896;-64
2021/05/25 00:22:45;;;;;;;;;;;;;;;7.69;100.00;95869.50;1272366;23;19904;-64
2021/05/25 00:23:15;;;;;;;;;;;;;;;7.69;100.00;95879.34;1272442;23;19915;-64
2021/05/25 00:23:46;;;;;;;;;;;;;;;7.67;100.00;95876.91;1272573;23;19994;-64
2021/05/25 00:24:16;;;;;;;;;;;;;;;7.70;100.00;95880.94;1272570;23;19979;-64
2021/05/25 00:24:46;;;;;;;;;;;;;;;7.69;100.00;95882.81;1279118;23;19938;-64
2021/05/25 00:25:16;;;;;;;;;;;;;;;7.67;100.00;95876.91;1279042;23;19904;-64
2021/05/25 00:25:47;;;;;;;;;;;;;;;7.67;100.00;95865.47;1279002;23;19908;-64
2021/05/25 00:26:17;;;;;;;;;;;;;;;7.70;100.00;95867.66;1279074;23;19911;-64
2021/05/25 00:26:47;;;;;;;;;;;;;;;7.74;100.00;95869.53;1278722;23;19908;-64
2021/05/25 00:27:18;;;;;;;;;;;;;;;7.74;100.00;95872.22;1279003;23;19917;-64
2021/05/25 00:27:48;;;;;;;;;;;;;;;7.78;100.00;95880.50;1278960;23;19923;-64
2021/05/25 00:28:20;;;;;;;;;;;;;;;7.78;100.00;95888.47;1279092;23;19904;-64
2021/05/25 00:28:50;;;;;;;;;;;;;;;7.79;100.00;95882.88;1279053;23;19964;-64
2021/05/25 00:29:21;;;;;;;;;;;;;;;7.82;100.00;95898.31;1279081;23;19913;-65
2021/05/25 00:29:51;;;;;;;;;;;;;;;7.84;100.00;95891.97;1279034;23;19939;-65
2021/05/25 00:30:21;;;;;;;;;;;;;;;7.79;100.00;95893.53;1279016;23;19911;-65
2021/05/25 00:30:51;;;;;;;;;;;;;;;7.77;100.00;95890.31;1278982;23;20549;-65
2021/05/25 00:31:22;;;;;;;;;;;;;;;7.75;100.00;95888.97;1279063;23;19951;-65
2021/05/25 00:31:52;;;;;;;;;;;;;;;7.75;100.00;95889.75;1279005;23;19943;-65
2021/05/25 00:32:22;;;;;;;;;;;;;;;7.73;100.00;95878.59;1278979;23;19910;-65
2021/05/25 00:32:53;;;;;;;;;;;;;;;7.69;100.00;95888.13;1278920;23;20319;-65
2021/05/25 00:33:23;;;;;;;;;;;;;;;7.69;100.00;95884.66;1279029;23;19908;-65
2021/05/25 00:33:53;;;;;;;;;;;;;;;7.74;100.00;95887.38;1279026;23;19908;-65
2021/05/25 00:34:23;;;;;;;;;;;;;;;7.73;100.00;95889.22;1279023;23;19908;-65
2021/05/25 00:34:54;;;;;;;;;;;;;;;7.75;100.00;95887.09;1278972;23;19919;-65
2021/05/25 00:35:26;;;;;;;;;;;;;;;7.74;100.00;95885.50;1279074;23;19904;-65
2021/05/25 00:35:56;;;;;;;;;;;;;;;7.75;100.00;95889.75;1278991;23;19908;-65
2021/05/25 00:36:27;;;;;;;;;;;;;;;7.75;100.00;95879.13;1279100;23;19937;-65
2021/05/25 00:36:57;;;;;;;;;;;;;;;7.75;100.00;95879.13;1278983;23;19983;-65
2021/05/25 00:37:27;;;;;;;;;;;;;;;7.78;100.00;95883.16;1279099;23;19926;-65
2021/05/25 00:37:58;;;;;;;;;;;;;;;7.77;100.00;95881.53;1278451;23;19914;-65
2021/05/25 00:38:28;;;;;;;;;;;;;;;7.73;100.00;95883.91;1278589;23;19904;-65
2021/05/25 00:38:58;;;;;;;;;;;;;;;7.69;100.00;95888.13;1278740;23;19909;-65
2021/05/25 00:39:28;;;;;;;;;;;;;;;7.68;100.00;95885.72;1278703;23;20318;-65
2021/05/25 00:39:59;;;;;;;;;;;;;;;7.65;100.00;95881.69;1279095;23;19990;-65
2021/05/25 00:40:29;;;;;;;;;;;;;;;7.66;100.00;95885.16;1279044;23;19927;-65
2021/05/25 00:40:59;;;;;;;;;;;;;;;7.65;100.00;95880.91;1279092;23;19908;-65
2021/05/25 00:41:30;;;;;;;;;;;;;;;7.62;100.00;95890.19;1279097;23;19985;-65
2021/05/25 00:42:00;;;;;;;;;;;;;;;7.66;100.00;95883.31;1278542;23;20255;-65
2021/05/25 00:42:30;;;;;;;;;;;;;;;7.68;100.00;95881.22;1278762;23;20024;-65
2021/05/25 00:43:01;;;;;;;;;;;;;;;7.69;100.00;95884.66;1278244;23;19914;-65
2021/05/25 00:43:31;;;;;;;;;;;;;;;7.69;100.00;95893.44;1278705;23;19971;-65
2021/05/25 00:44:02;;;;;;;;;;;;;;;7.70;100.00;95897.69;1279064;23;19904;-65
2021/05/25 00:44:34;;;;;;;;;;;;;;;7.71;100.00;95891.31;1279087;23;19915;-65
2021/05/25 00:45:05;;;;;;;;;;;;;;;7.73;100.00;95899.88;1279086;23;19935;-66
2021/05/25 00:45:35;;;;;;;;;;;;;;;7.76;100.00;95903.88;1279124;23;20345;-65
2021/05/25 00:46:06;;;;;;;;;;;;;;;7.72;100.00;95898.25;1278863;23;19911;-65
2021/05/25 00:46:36;;;;;;;;;;;;;;;7.71;100.00;95901.97;1279136;23;19908;-65
2021/05/25 00:47:06;;;;;;;;;;;;;;;7.72;100.00;95903.56;1278688;23;19940;-65
2021/05/25 00:47:37;;;;;;;;;;;;;;;7.74;100.00;95909.44;1278848;23;19915;-65
2021/05/25 00:48:07;;;;;;;;;;;;;;;7.75;100.00;95900.41;1278756;23;19904;-65
2021/05/25 00:48:37;;;;;;;;;;;;;;;7.75;100.00;95902.25;1278798;23;19912;-65
2021/05/25 00:49:09;;;;;;;;;;;;;;;7.78;100.00;95907.88;1279216;23;19912;-65
2021/05/25 00:49:39;;;;;;;;;;;;;;;7.76;100.00;95910.00;1280234;23;19915;-66
2021/05/25 00:50:11;;;;;;;;;;;;;;;7.79;100.00;95900.72;1281249;23;19955;-65
2021/05/25 00:50:41;;;;;;;;;;;;;;;7.77;100.00;95900.13;1280834;23;19908;-65
2021/05/25 00:51:12;;;;;;;;;;;;;;;7.78;100.00;95907.88;1280843;23;20005;-65
2021/05/25 00:51:42;;;;;;;;;;;;;;;7.81;100.00;95902.03;1280095;23;19931;-66
2021/05/25 00:52:12;;;;;;;;;;;;;;;7.79;100.00;95903.38;1279487;23;19947;-65
2021/05/25 00:52:43;;;;;;;;;;;;;;;7.81;100.00;95904.72;1279140;23;19912;-65
2021/05/25 00:53:14;;;;;;;;;;;;;;;7.83;100.00;95907.13;1279319;23;19907;-65
2021/05/25 00:53:44;;;;;;;;;;;;;;;7.82;100.00;95895.66;1279379;23;19919;-66
2021/05/25 00:54:14;;;;;;;;;;;;;;;7.84;100.00;95897.28;1279524;23;20234;-65
2021/05/25 00:54:44;;;;;;;;;;;;;;;7.85;100.00;95898.88;1279572;23;19943;-66
2021/05/25 00:55:16;;;;;;;;;;;;;;;7.84;100.00;95899.94;1279503;23;19901;-65
2021/05/25 00:55:46;;;;;;;;;;;;;;;7.84;100.00;95892.78;1279314;23;20234;-66
2021/05/25 00:56:16;;;;;;;;;;;;;;;7.86;100.00;95892.50;1279410;23;19926;-66
2021/05/25 00:56:47;;;;;;;;;;;;;;;7.87;100.00;95894.09;1279600;23;19915;-66
2021/05/25 00:57:17;;;;;;;;;;;;;;;7.87;100.00;95886.91;1279218;23;19904;-65
2021/05/25 00:57:47;;;;;;;;;;;;;;;7.90;100.00;95890.94;1279483;23;19908;-66
2021/05/25 00:58:18;;;;;;;;;;;;;;;7.88;100.00;95888.50;1279409;23;19896;-66
2021/05/25 00:58:48;;;;;;;;;;;;;;;7.86;100.00;95890.66;1279293;23;19908;-66
2021/05/25 00:59:18;;;;;;;;;;;;;;;7.89;100.00;95886.69;1279201;23;19987;-65
2021/05/25 00:59:49;;;;;;;;;;;;;;;7.88;100.00;95877.88;1273592;23;19935;-65
2021/05/25 01:00:20;;;;;;;;;;;;;;;7.90;100.00;95878.44;1273462;23;19947;-66
2021/05/25 01:00:50;;;;;;;;;;;;;;;7.86;100.00;95869.34;1279264;23;19915;-66
2021/05/25 01:01:20;;;;;;;;;;;;;;;7.87;100.00;95867.50;1279281;23;19903;-66
2021/05/25 01:01:51;;;;;;;;;;;;;;;7.90;100.00;95867.00;1279782;23;19908;-68
2021/05/25 01:02:21;;;;;;;;;;;;;;;7.90;100.00;95867.00;1280370;23;19896;-68
2021/05/25 01:02:51;;;;;;;;;;;;;;;7.91;100.00;95866.72;1280325;23;19915;-66
2021/05/25 01:03:22;;;;;;;;;;;;;;;7.91;100.00;95864.06;1280152;23;19909;-66
2021/05/25 01:03:52;;;;;;;;;;;;;;;7.92;100.00;95867.53;1280264;23;20333;-66
2021/05/25 01:04:23;;;;;;;;;;;;;;;7.89;100.00;95871.53;1280232;23;20329;-66
2021/05/25 01:04:53;;;;;;;;;;;;;;;7.91;100.00;95865.94;1280236;23;19936;-66
2021/05/25 01:05:23;;;;;;;;;;;;;;;7.92;100.00;95867.53;1279714;23;19904;-65
2021/05/25 01:05:54;;;;;;;;;;;;;;;7.94;100.00;95866.22;1280010;23;20237;-65
2021/05/25 01:06:24;;;;;;;;;;;;;;;7.93;100.00;95861.16;1280195;23;19926;-65
2021/05/25 01:06:54;;;;;;;;;;;;;;;7.95;100.00;95870.50;1279948;23;19904;-65
2021/05/25 01:07:24;;;;;;;;;;;;;;;7.95;100.00;95859.84;1279626;23;19971;-66
2021/05/25 01:07:55;;;;;;;;;;;;;;;7.96;100.00;95865.97;1279997;23;20306;-65
2021/05/25 01:08:25;;;;;;;;;;;;;;;7.92;100.00;95870.19;1279877;23;19904;-66
2021/05/25 01:08:59;;;;;;;;;;;;;;;7.86;100.00;95866.69;1280052;23;20360;-65
2021/05/25 01:09:32;;;;;;;;;;;;;;;7.86;100.00;95866.69;1279899;23;19908;-66
2021/05/25 01:10:03;;;;;;;;;;;;;;;7.87;100.00;95870.16;1279644;23;19904;-65
2021/05/25 01:10:35;;;;;;;;;;;;;;;7.89;100.00;95874.19;1279342;23;19904;-65
2021/05/25 01:11:07;;;;;;;;;;;;;;;7.91;100.00;95890.69;1280499;23;19927;-66
2021/05/25 01:11:39;;;;;;;;;;;;;;;7.94;100.00;95884.06;1280747;23;19904;-66
2021/05/25 01:12:10;;;;;;;;;;;;;;;7.94;100.00;95890.19;1281013;23;19975;-66
2021/05/25 01:12:51;;;;;;;;;;;;;;;7.93;100.00;95890.41;1281042;23;20289;-66
2021/05/25 01:13:22;;;;;;;;;;;;;;;7.91;100.00;95892.53;1281754;23;19904;-66
2021/05/25 01:13:55;;;;;;;;;;;;;;;7.91;100.00;95888.03;1280553;23;19908;-66
2021/05/25 01:14:25;;;;;;;;;;;;;;;7.91;100.00;95881.91;1280978;23;19904;-66
2021/05/25 01:15:00;;;;;;;;;;;;;;;7.89;100.00;95876.84;1280879;23;19930;-70
2021/05/25 01:15:30;;;;;;;;;;;;;;;7.90;100.00;95882.97;1280889;23;19979;-68
2021/05/25 01:16:01;;;;;;;;;;;;;;;7.92;100.00;95880.84;1280648;23;20316;-66
2021/05/25 01:16:31;;;;;;;;;;;;;;;7.87;100.00;95876.28;1280876;23;19908;-68
2021/05/25 01:17:02;;;;;;;;;;;;;;;7.87;100.00;95878.94;1280917;23;19911;-69
2021/05/25 01:17:32;;;;;;;;;;;;;;;7.87;100.00;95864.84;1280993;23;19904;-67
2021/05/25 01:18:03;;;;;;;;;;;;;;;7.89;100.00;95866.19;1280843;23;19904;-67
2021/05/25 01:18:33;;;;;;;;;;;;;;;7.91;100.00;95857.94;1280289;23;19911;-68
2021/05/25 01:19:04;;;;;;;;;;;;;;;7.89;100.00;95863.53;1280866;23;20310;-65
2021/05/25 01:19:34;;;;;;;;;;;;;;;7.90;100.00;95859.00;1280722;23;19938;-69
2021/05/25 01:20:04;;;;;;;;;;;;;;;7.90;100.00;95857.16;1280810;23;19911;-68
2021/05/25 01:20:36;;;;;;;;;;;;;;;7.88;100.00;95858.44;1281595;23;20280;-66
2021/05/25 01:21:06;;;;;;;;;;;;;;;7.86;100.00;95850.72;1280992;23;19962;-70
2021/05/25 01:21:37;;;;;;;;;;;;;;;7.90;100.00;95856.34;1280701;23;19904;-66
2021/05/25 01:22:07;;;;;;;;;;;;;;;7.89;100.00;95860.06;1281081;23;19935;-67
2021/05/25 01:22:37;;;;;;;;;;;;;;;7.86;100.00;95861.38;1281065;23;19910;-70
2021/05/25 01:23:08;;;;;;;;;;;;;;;7.86;100.00;95864.03;1281014;23;19904;-67
2021/05/25 01:23:39;;;;;;;;;;;;;;;7.88;100.00;95869.88;1280878;23;19900;-66
2021/05/25 01:24:09;;;;;;;;;;;;;;;7.88;100.00;95877.88;1280944;23;19911;-66
2021/05/25 01:24:39;;;;;;;;;;;;;;;7.89;100.00;95874.19;1281320;23;19935;-66
2021/05/25 01:25:13;;;;;;;;;;;;;;;7.91;100.00;95884.56;1281521;23;20306;-66
2021/05/25 01:25:46;;;;;;;;;;;;;;;7.91;100.00;95882.69;1281734;23;19924;-67
2021/05/25 01:26:17;;;;;;;;;;;;;;;7.91;100.00;95887.22;1280635;23;19900;-66
2021/05/25 01:26:48;;;;;;;;;;;;;;;7.91;100.00;95895.19;1281018;23;19911;-66
2021/05/25 01:27:18;;;;;;;;;;;;;;;7.92;100.00;95897.59;1281087;23;19900;-66
2021/05/25 01:27:58;;;;;;;;;;;;;;;7.95;100.00;95885.66;1281707;23;19907;-66
2021/05/25 01:28:29;;;;;;;;;;;;;;;7.94;100.00;95894.72;1281907;23;20414;-66
2021/05/25 01:28:59;;;;;;;;;;;;;;;7.93;100.00;95898.41;1282408;23;19908;-66
2021/05/25 01:29:29;;;;;;;;;;;;;;;7.95;100.00;95896.31;1281117;23;19900;-68
2021/05/25 01:30:00;;;;;;;;;;;;;;;7.96;100.00;95892.56;1280829;23;19914;-66
2021/05/25 01:30:31;;;;;;;;;;;;;;;7.96;100.00;95893.38;1281499;23;19978;-66
2021/05/25 01:31:01;;;;;;;;;;;;;;;7.94;100.00;95892.03;1281092;23;19908;-66
2021/05/25 01:31:31;;;;;;;;;;;;;;;7.95;100.00;95899.75;1281433;23;19901;-67
2021/05/25 01:32:02;;;;;;;;;;;;;;;7.95;100.00;95893.66;1279763;23;19915;-65
2021/05/25 01:32:32;;;;;;;;;;;;;;;7.97;100.00;95884.31;1280033;23;19952;-66
2021/05/25 01:33:03;;;;;;;;;;;;;;;7.94;100.00;95889.38;1279909;23;19908;-66
2021/05/25 01:33:35;;;;;;;;;;;;;;;7.95;100.00;95881.13;1279930;23;19947;-66
2021/05/25 01:34:06;;;;;;;;;;;;;;;7.95;100.00;95880.34;1279683;23;20314;-66
2021/05/25 01:34:36;;;;;;;;;;;;;;;7.93;100.00;95875.25;1279778;23;19936;-66
2021/05/25 01:35:07;;;;;;;;;;;;;;;7.94;100.00;95876.06;1279482;23;19962;-66
2021/05/25 01:35:37;;;;;;;;;;;;;;;7.96;100.00;95884.59;1279529;23;19904;-66
2021/05/25 01:36:08;;;;;;;;;;;;;;;7.95;100.00;95888.31;1279417;23;19935;-65
2021/05/25 01:36:38;;;;;;;;;;;;;;;7.93;100.00;95887.75;1279294;23;19901;-66
2021/05/25 01:37:08;;;;;;;;;;;;;;;7.93;100.00;95893.06;1279306;23;19912;-65
2021/05/25 01:37:39;;;;;;;;;;;;;;;7.91;100.00;95897.88;1279333;23;20014;-65
2021/05/25 01:38:09;;;;;;;;;;;;;;;7.92;100.00;95896.81;1278786;23;19962;-65
2021/05/25 01:38:39;;;;;;;;;;;;;;;7.93;100.00;95903.72;1279043;23;19904;-65
2021/05/25 01:39:10;;;;;;;;;;;;;;;7.92;100.00;95892.28;1279071;23;19909;-65
2021/05/25 01:39:40;;;;;;;;;;;;;;;7.92;100.00;95899.47;1279020;23;19900;-65
2021/05/25 01:40:10;;;;;;;;;;;;;;;7.92;100.00;95896.81;1279469;23;19909;-65
2021/05/25 01:40:41;;;;;;;;;;;;;;;7.92;100.00;95910.09;1279327;23;19907;-65
2021/05/25 01:41:11;;;;;;;;;;;;;;;7.94;100.00;95905.34;1279054;23;19908;-66
2021/05/25 01:41:42;;;;;;;;;;;;;;;7.93;100.00;95907.19;1278949;23;19983;-65
2021/05/25 01:42:12;;;;;;;;;;;;;;;7.94;100.00;95911.47;1278929;23;20019;-65
2021/05/25 01:42:42;;;;;;;;;;;;;;;7.93;100.00;95915.16;1278954;23;19928;-65
2021/05/25 01:43:13;;;;;;;;;;;;;;;7.94;100.00;95913.34;1279265;23;19917;-65
2021/05/25 01:43:43;;;;;;;;;;;;;;;7.93;100.00;95912.50;1279178;23;19987;-65
2021/05/25 01:44:13;;;;;;;;;;;;;;;7.93;100.00;95911.69;1279408;23;19908;-65
2021/05/25 01:44:44;;;;;;;;;;;;;;;7.92;100.00;95913.56;1278977;23;20317;-65
2021/05/25 01:45:16;;;;;;;;;;;;;;;7.92;100.00;95912.78;1279054;23;19908;-65
2021/05/25 01:45:46;;;;;;;;;;;;;;;7.96;100.00;95924.50;1279067;23;19958;-65
2021/05/25 01:46:17;;;;;;;;;;;;;;;7.94;100.00;95916.00;1279065;23;20342;-65
2021/05/25 01:46:47;;;;;;;;;;;;;;;7.93;100.00;95919.69;1278886;23;19912;-65
2021/05/25 01:47:17;;;;;;;;;;;;;;;7.94;100.00;95922.13;1278856;23;19998;-65
2021/05/25 01:47:48;;;;;;;;;;;;;;;7.92;100.00;95916.22;1279218;23;20379;-65
2021/05/25 01:48:18;;;;;;;;;;;;;;;7.91;100.00;95922.63;1279360;23;19939;-65
2021/05/25 01:48:49;;;;;;;;;;;;;;;7.96;100.00;95921.84;1279226;23;20286;-65
2021/05/25 01:49:19;;;;;;;;;;;;;;;7.94;100.00;95923.97;1279334;23;19908;-65
2021/05/25 01:49:49;;;;;;;;;;;;;;;7.93;100.00;95923.16;1279357;23;19904;-65
2021/05/25 01:50:20;;;;;;;;;;;;;;;7.93;100.00;95922.34;1279361;23;20330;-65
2021/05/25 01:50:50;;;;;;;;;;;;;;;7.90;100.00;95923.69;1279311;23;19904;-65
2021/05/25 01:51:20;;;;;;;;;;;;;;;7.89;100.00;95919.41;1279465;23;19904;-66
2021/05/25 01:51:51;;;;;;;;;;;;;;;7.90;100.00;95917.56;1279271;23;19910;-66
2021/05/25 01:52:21;;;;;;;;;;;;;;;7.91;100.00;95906.66;1279157;23;19911;-66
2021/05/25 01:52:53;;;;;;;;;;;;;;;7.91;100.00;95909.31;1279324;23;19932;-65
2021/05/25 01:53:27;;;;;;;;;;;;;;;7.90;100.00;95902.38;1279371;23;19901;-65
2021/05/25 01:53:57;;;;;;;;;;;;;;;7.94;100.00;95908.00;1279221;23;19900;-65
2021/05/25 01:54:28;;;;;;;;;;;;;;;7.95;100.00;95906.94;1279285;23;20346;-65
2021/05/25 01:54:58;;;;;;;;;;;;;;;7.97;100.00;95912.81;1279360;23;19932;-65
2021/05/25 01:55:28;;;;;;;;;;;;;;;7.98;100.00;95917.06;1279310;23;19903;-65
2021/05/25 01:55:59;;;;;;;;;;;;;;;7.98;100.00;95909.88;1279322;23;19903;-65
2021/05/25 01:56:29;;;;;;;;;;;;;;;8.01;100.00;95912.03;1279335;23;19975;-65
2021/05/25 01:56:59;;;;;;;;;;;;;;;8.01;100.00;95909.38;1278897;23;19897;-65
2021/05/25 01:57:30;;;;;;;;;;;;;;;8.04;100.00;95911.53;1272402;23;19924;-65
2021/05/25 01:58:10;;;;;;;;;;;;;;;8.02;100.00;95904.84;1272711;23;19897;-65
2021/05/25 01:58:40;;;;;;;;;;;;;;;8.00;100.00;95909.66;1274867;23;19896;-65
2021/05/25 01:59:10;;;;;;;;;;;;;;;8.00;100.00;95912.31;1279122;23;19896;-65
2021/05/25 01:59:41;;;;;;;;;;;;;;;8.05;100.00;95912.34;1279120;23;20199;-65
2021/05/25 02:00:11;;;;;;;;;;;;;;;8.04;100.00;95908.88;1279363;23;19900;-65
2021/05/25 02:00:43;;;;;;;;;;;;;;;8.04;100.00;95916.06;1279339;23;19897;-65
2021/05/25 02:01:14;;;;;;;;;;;;;;;8.03;100.00;95915.25;1279172;23;19915;-65
2021/05/25 02:01:44;;;;;;;;;;;;;;;8.02;100.00;95913.66;1279320;23;19918;-65
2021/05/25 02:02:14;;;;;;;;;;;;;;;8.05;100.00;95920.31;1279310;23;19963;-65
2021/05/25 02:02:45;;;;;;;;;;;;;;;8.02;100.00;95918.16;1279294;23;19915;-65
2021/05/25 02:03:15;;;;;;;;;;;;;;;8.00;100.00;95917.63;1279086;23;19914;-65
2021/05/25 02:03:45;;;;;;;;;;;;;;;8.01;100.00;95920.03;1279362;23;19919;-65
2021/05/25 02:04:15;;;;;;;;;;;;;;;8.02;100.00;95920.81;1279374;23;20207;-65
2021/05/25 02:04:46;;;;;;;;;;;;;;;8.01;100.00;95914.69;1279394;23;19934;-65
2021/05/25 02:05:16;;;;;;;;;;;;;;;8.02;100.00;95920.81;1279214;23;19909;-65
2021/05/25 02:05:47;;;;;;;;;;;;;;;8.02;100.00;95921.63;1278869;23;20365;-65
2021/05/25 02:06:17;;;;;;;;;;;;;;;8.03;100.00;95915.25;1278975;23;19908;-65
2021/05/25 02:06:47;;;;;;;;;;;;;;;8.01;100.00;95919.22;1278949;23;19908;-65
2021/05/25 02:07:18;;;;;;;;;;;;;;;7.96;100.00;95919.19;1278907;23;19908;-65
2021/05/25 02:07:49;;;;;;;;;;;;;;;7.96;100.00;95921.84;1278998;23;20315;-65
2021/05/25 02:08:19;;;;;;;;;;;;;;;7.98;100.00;95920.53;1278764;23;19928;-65
2021/05/25 02:08:49;;;;;;;;;;;;;;;7.96;100.00;95932.50;1278998;23;19979;-65
2021/05/25 02:09:20;;;;;;;;;;;;;;;7.94;100.00;95922.13;1278958;23;19915;-65
2021/05/25 02:09:50;;;;;;;;;;;;;;;7.98;100.00;95925.06;1278989;23;19896;-65
2021/05/25 02:10:21;;;;;;;;;;;;;;;7.97;100.00;95923.44;1279289;23;20306;-65
2021/05/25 02:10:52;;;;;;;;;;;;;;;7.98;100.00;95928.50;1279100;23;19896;-65
2021/05/25 02:11:23;;;;;;;;;;;;;;;7.97;100.00;95924.25;1279301;23;19936;-65
2021/05/25 02:11:53;;;;;;;;;;;;;;;7.99;100.00;95924.81;1279324;23;19931;-65
2021/05/25 02:12:23;;;;;;;;;;;;;;;7.96;100.00;95921.84;1278968;23;20322;-65
2021/05/25 02:12:54;;;;;;;;;;;;;;;7.95;100.00;95920.25;1279204;23;19927;-65
2021/05/25 02:13:25;;;;;;;;;;;;;;;7.97;100.00;95918.94;1279200;23;19908;-65
2021/05/25 02:13:55;;;;;;;;;;;;;;;7.94;100.00;95916.78;1279287;23;19978;-65
2021/05/25 02:14:26;;;;;;;;;;;;;;;7.93;100.00;95915.16;1279318;23;19909;-65
2021/05/25 02:14:56;;;;;;;;;;;;;;;7.96;100.00;95909.34;1279332;23;20266;-65
2021/05/25 02:15:26;;;;;;;;;;;;;;;7.96;100.00;95913.88;1279338;23;19908;-65
2021/05/25 02:15:58;;;;;;;;;;;;;;;7.94;100.00;95916.00;1279295;23;19919;-65
2021/05/25 02:16:28;;;;;;;;;;;;;;;7.92;100.00;95910.09;1279273;23;19935;-65
2021/05/25 02:16:58;;;;;;;;;;;;;;;7.90;100.00;95906.91;1279374;23;19947;-65
2021/05/25 02:17:28;;;;;;;;;;;;;;;7.89;100.00;95900.00;1279303;23;20261;-65
2021/05/25 02:18:05;;;;;;;;;;;;;;;7.86;100.00;95903.16;1279340;23;19903;-65
2021/05/25 02:18:37;;;;;;;;;;;;;;;7.88;100.00;95895.69;1279287;23;19908;-65
2021/05/25 02:19:07;;;;;;;;;;;;;;;7.89;100.00;95902.66;1279277;23;19903;-66
2021/05/25 02:19:37;;;;;;;;;;;;;;;7.91;100.00;95911.16;1279354;23;19904;-65
2021/05/25 02:20:08;;;;;;;;;;;;;;;7.89;100.00;95913.28;1279138;23;20217;-65
2021/05/25 02:20:39;;;;;;;;;;;;;;;7.88;100.00;95916.97;1279022;23;19897;-65
2021/05/25 02:21:09;;;;;;;;;;;;;;;7.88;100.00;95915.13;1279304;23;19982;-65
2021/05/25 02:21:39;;;;;;;;;;;;;;;7.88;100.00;95922.31;1279315;23;19983;-65
2021/05/25 02:22:10;;;;;;;;;;;;;;;7.88;100.00;95911.66;1279282;23;19897;-65
2021/05/25 02:22:40;;;;;;;;;;;;;;;7.86;100.00;95914.59;1279265;23;19923;-65
2021/05/25 02:23:10;;;;;;;;;;;;;;;7.85;100.00;95913.00;1279110;23;19904;-65
2021/05/25 02:23:41;;;;;;;;;;;;;;;7.87;100.00;95910.06;1279326;23;20380;-65
2021/05/25 02:24:11;;;;;;;;;;;;;;;7.85;100.00;95914.84;1279259;23;20311;-65
2021/05/25 02:24:41;;;;;;;;;;;;;;;7.82;100.00;95908.97;1279314;23;19912;-65
2021/05/25 02:25:12;;;;;;;;;;;;;;;7.84;100.00;95918.56;1279278;23;19903;-65
2021/05/25 02:25:42;;;;;;;;;;;;;;;7.86;100.00;95913.78;1279235;23;19908;-65
2021/05/25 02:26:12;;;;;;;;;;;;;;;7.84;100.00;95908.72;1279288;23;19904;-65
2021/05/25 02:26:42;;;;;;;;;;;;;;;7.83;100.00;95912.44;1279285;23;19908;-65
2021/05/25 02:27:13;;;;;;;;;;;;;;;7.86;100.00;95908.47;1279250;23;19904;-65
2021/05/25 02:27:43;;;;;;;;;;;;;;;7.84;100.00;95906.06;1279254;23;19908;-65
2021/05/25 02:28:13;;;;;;;;;;;;;;;7.85;100.00;95915.66;1279257;23;19911;-65
2021/05/25 02:28:44;;;;;;;;;;;;;;;7.85;100.00;95913.00;1279174;23;20284;-65
2021/05/25 02:29:14;;;;;;;;;;;;;;;7.85;100.00;95912.19;1279249;23;19950;-65
2021/05/25 02:29:44;;;;;;;;;;;;;;;7.87;100.00;95904.75;1279290;23;19916;-65
2021/05/25 02:30:15;;;;;;;;;;;;;;;7.88;100.00;95911.66;1279205;23;19910;-65
2021/05/25 02:30:45;;;;;;;;;;;;;;;7.82;100.00;95908.97;1279122;23;19912;-65
2021/05/25 02:31:15;;;;;;;;;;;;;;;7.85;100.00;95907.66;1279296;23;19904;-65
2021/05/25 02:31:45;;;;;;;;;;;;;;;7.80;100.00;95908.44;1279182;23;20337;-65
2021/05/25 02:32:16;;;;;;;;;;;;;;;7.80;100.00;95912.94;1279226;23;19913;-65
2021/05/25 02:32:46;;;;;;;;;;;;;;;7.82;100.00;95919.59;1279278;23;19915;-65
2021/05/25 02:33:17;;;;;;;;;;;;;;;7.82;100.00;95918.81;1279253;23;19904;-65
2021/05/25 02:33:47;;;;;;;;;;;;;;;7.81;100.00;95923.31;1279303;23;19908;-65
2021/05/25 02:34:17;;;;;;;;;;;;;;;7.82;100.00;95922.28;1279264;23;20032;-65
2021/05/25 02:34:48;;;;;;;;;;;;;;;7.81;100.00;95927.84;1279237;23;19908;-65
2021/05/25 02:35:18;;;;;;;;;;;;;;;7.77;100.00;95935.53;1278894;23;19904;-65
2021/05/25 02:35:49;;;;;;;;;;;;;;;7.77;100.00;95932.06;1279024;23;19941;-65
2021/05/25 02:36:19;;;;;;;;;;;;;;;7.77;100.00;95926.75;1279206;23;20357;-65
2021/05/25 02:36:49;;;;;;;;;;;;;;;7.76;100.00;95920.63;1279290;23;19911;-65
2021/05/25 02:37:19;;;;;;;;;;;;;;;7.77;100.00;95929.41;1279219;23;19927;-65
2021/05/25 02:37:50;;;;;;;;;;;;;;;7.78;100.00;95928.38;1279365;23;19908;-65
2021/05/25 02:38:20;;;;;;;;;;;;;;;7.76;100.00;95925.16;1279130;23;20425;-65
2021/05/25 02:38:51;;;;;;;;;;;;;;;7.76;100.00;95927.81;1279286;23;20329;-65
2021/05/25 02:39:21;;;;;;;;;;;;;;;7.76;100.00;95917.97;1279243;23;20237;-65
2021/05/25 02:39:51;;;;;;;;;;;;;;;7.75;100.00;95923.56;1279229;23;19943;-65